RYR21DG EIDW-EGCC
Flight info
| Callsign | RYR21DG |
|---|---|
| Flight time | 0h 37m |
| Altitude | 19000 |
| Route | BOFUM1E BOFUM Q37 MALUD |
| Aircraft | B738/M-SDE2E3FGHIRWXY/LB1 |
Departure
| Time | 2026-05-04 16:36 |
|---|---|
| Airport | Dublin Airport (EIDW) |
Arrival
| Time | 2026-05-04 17:13 |
|---|---|
| Airport | Manchester Airport (EGCC) |
| Time | Latitude | Longitude | Altitude | Speed | Heading |
|---|---|---|---|---|---|
| 2026-05-04 15:54 | 53.43010 | -6.24943 | 219 ft | 0 kts | 5° |
| 2026-05-04 16:26 | 53.42952 | -6.24936 | 210 ft | 3 kts | 296° |
| 2026-05-04 16:26 | 53.42946 | -6.24892 | 210 ft | 0 kts | 276° |
| 2026-05-04 16:28 | 53.42950 | -6.24957 | 216 ft | 7 kts | 276° |
| 2026-05-04 16:29 | 53.42829 | -6.25268 | 213 ft | 14 kts | 160° |
| 2026-05-04 16:30 | 53.42606 | -6.25574 | 210 ft | 19 kts | 225° |
| 2026-05-04 16:31 | 53.42361 | -6.25986 | 210 ft | 29 kts | 225° |
| 2026-05-04 16:31 | 53.42304 | -6.26945 | 210 ft | 26 kts | 276° |
| 2026-05-04 16:32 | 53.42346 | -6.27774 | 210 ft | 22 kts | 275° |
| 2026-05-04 16:33 | 53.42375 | -6.28276 | 217 ft | 21 kts | 275° |
| 2026-05-04 16:33 | 53.42401 | -6.28750 | 210 ft | 20 kts | 274° |
| 2026-05-04 16:34 | 53.42356 | -6.29065 | 214 ft | 8 kts | 193° |
| 2026-05-04 16:34 | 53.42328 | -6.29070 | 212 ft | 5 kts | 175° |
| 2026-05-04 16:35 | 53.42240 | -6.28950 | 210 ft | 10 kts | 94° |
| 2026-05-04 16:35 | 53.42044 | -6.25521 | 458 ft | 159 kts | 96° |
| 2026-05-04 16:36 | 53.41945 | -6.23631 | 1134 ft | 162 kts | 94° |
| 2026-05-04 16:36 | 53.41738 | -6.19611 | 2368 ft | 196 kts | 91° |
| 2026-05-04 16:37 | 53.41542 | -6.15401 | 2971 ft | 239 kts | 93° |
| 2026-05-04 16:37 | 53.41366 | -6.12483 | 3385 ft | 259 kts | 94° |
| 2026-05-04 16:37 | 53.40935 | -6.05254 | 5414 ft | 274 kts | 93° |
| 2026-05-04 16:38 | 53.41637 | -6.00096 | 6900 ft | 278 kts | 67° |
| 2026-05-04 16:39 | 53.43865 | -5.91077 | 9028 ft | 286 kts | 67° |
| 2026-05-04 16:39 | 53.45616 | -5.83747 | 10567 ft | 302 kts | 68° |
| 2026-05-04 16:40 | 53.47293 | -5.76748 | 11144 ft | 338 kts | 68° |
| 2026-05-04 16:40 | 53.48758 | -5.70670 | 12296 ft | 345 kts | 68° |
| 2026-05-04 16:41 | 53.50569 | -5.63123 | 13820 ft | 352 kts | 68° |
| 2026-05-04 16:41 | 53.53524 | -5.50481 | 16792 ft | 343 kts | 75° |
| 2026-05-04 16:42 | 53.53518 | -5.39868 | 18780 ft | 340 kts | 91° |
| 2026-05-04 16:43 | 53.53295 | -5.31933 | 19059 ft | 343 kts | 91° |
| 2026-05-04 16:43 | 53.53097 | -5.23938 | 19073 ft | 341 kts | 91° |
| 2026-05-04 16:43 | 53.53000 | -5.19963 | 19072 ft | 341 kts | 91° |
| 2026-05-04 16:44 | 53.52527 | -5.04099 | 19077 ft | 340 kts | 91° |
| 2026-05-04 16:45 | 53.52276 | -4.96489 | 19089 ft | 357 kts | 92° |
| 2026-05-04 16:46 | 53.51851 | -4.83847 | 19051 ft | 364 kts | 92° |
| 2026-05-04 16:46 | 53.51561 | -4.75341 | 19070 ft | 364 kts | 92° |
| 2026-05-04 16:47 | 53.51269 | -4.66852 | 19061 ft | 364 kts | 92° |
| 2026-05-04 16:47 | 53.50972 | -4.58350 | 19062 ft | 365 kts | 92° |
| 2026-05-04 16:48 | 53.50514 | -4.45643 | 19050 ft | 366 kts | 93° |
| 2026-05-04 16:48 | 53.50356 | -4.41372 | 19059 ft | 367 kts | 92° |
| 2026-05-04 16:49 | 53.50037 | -4.32817 | 19056 ft | 366 kts | 92° |
| 2026-05-04 16:49 | 53.49712 | -4.24278 | 19065 ft | 366 kts | 92° |
| 2026-05-04 16:50 | 53.49383 | -4.15753 | 19059 ft | 366 kts | 93° |
| 2026-05-04 16:50 | 53.49049 | -4.07226 | 19054 ft | 365 kts | 93° |
| 2026-05-04 16:51 | 53.48718 | -3.99007 | 19066 ft | 365 kts | 94° |
| 2026-05-04 16:51 | 53.48357 | -3.94799 | 19047 ft | 365 kts | 104° |
| 2026-05-04 16:51 | 53.46764 | -3.86843 | 18590 ft | 353 kts | 109° |
| 2026-05-04 16:52 | 53.45109 | -3.79089 | 18100 ft | 357 kts | 109° |
| 2026-05-04 16:52 | 53.44282 | -3.75145 | 17830 ft | 361 kts | 109° |
| 2026-05-04 16:53 | 53.42631 | -3.67200 | 17280 ft | 359 kts | 109° |
| 2026-05-04 16:53 | 53.40905 | -3.55306 | 15457 ft | 350 kts | 94° |
| 2026-05-04 16:54 | 53.40775 | -3.51229 | 14731 ft | 350 kts | 93° |
| 2026-05-04 16:55 | 53.40182 | -3.35267 | 12150 ft | 337 kts | 94° |
| 2026-05-04 16:55 | 53.39845 | -3.27660 | 11345 ft | 318 kts | 94° |
| 2026-05-04 16:56 | 53.39523 | -3.20575 | 11093 ft | 295 kts | 94° |
| 2026-05-04 16:56 | 53.40004 | -3.10935 | 10315 ft | 277 kts | 60° |
| 2026-05-04 16:57 | 53.40972 | -3.08130 | 10059 ft | 275 kts | 58° |
| 2026-05-04 16:57 | 53.42902 | -3.02675 | 9507 ft | 272 kts | 58° |
| 2026-05-04 16:58 | 53.45647 | -2.94834 | 8790 ft | 267 kts | 58° |
| 2026-05-04 16:58 | 53.46573 | -2.92165 | 8598 ft | 262 kts | 59° |
| 2026-05-04 16:59 | 53.48410 | -2.86849 | 8097 ft | 262 kts | 58° |
| 2026-05-04 17:00 | 53.52037 | -2.76314 | 8059 ft | 263 kts | 59° |
| 2026-05-04 17:00 | 53.54494 | -2.68114 | 8048 ft | 265 kts | 77° |
| 2026-05-04 17:01 | 53.55119 | -2.62026 | 8043 ft | 265 kts | 80° |
| 2026-05-04 17:01 | 53.55727 | -2.55928 | 8022 ft | 262 kts | 80° |
| 2026-05-04 17:02 | 53.56335 | -2.49938 | 7534 ft | 260 kts | 80° |
| 2026-05-04 17:02 | 53.56946 | -2.43980 | 7072 ft | 257 kts | 80° |
| 2026-05-04 17:03 | 53.57252 | -2.41005 | 6833 ft | 256 kts | 80° |
| 2026-05-04 17:03 | 53.57558 | -2.38047 | 6616 ft | 256 kts | 80° |
| 2026-05-04 17:03 | 53.58166 | -2.32166 | 6179 ft | 254 kts | 80° |
| 2026-05-04 17:04 | 53.58766 | -2.26325 | 6050 ft | 252 kts | 80° |
| 2026-05-04 17:04 | 53.58593 | -2.20626 | 6050 ft | 250 kts | 116° |
| 2026-05-04 17:05 | 53.56938 | -2.15518 | 5715 ft | 250 kts | 120° |
| 2026-05-04 17:05 | 53.55207 | -2.10412 | 5233 ft | 250 kts | 120° |
| 2026-05-04 17:06 | 53.53472 | -2.05349 | 4784 ft | 249 kts | 120° |
| 2026-05-04 17:06 | 53.52607 | -2.02840 | 4568 ft | 247 kts | 120° |
| 2026-05-04 17:07 | 53.50980 | -1.98128 | 4088 ft | 246 kts | 122° |
| 2026-05-04 17:07 | 53.50264 | -1.96622 | 3898 ft | 245 kts | 140° |
| 2026-05-04 17:07 | 53.48214 | -1.95308 | 3550 ft | 241 kts | 182° |
| 2026-05-04 17:07 | 53.47160 | -1.95614 | 3365 ft | 239 kts | 202° |
| 2026-05-04 17:08 | 53.45866 | -1.97220 | 3257 ft | 229 kts | 235° |
| 2026-05-04 17:08 | 53.45385 | -2.02005 | 3097 ft | 200 kts | 274° |
| 2026-05-04 17:08 | 53.45491 | -2.04261 | 3000 ft | 187 kts | 275° |
| 2026-05-04 17:09 | 53.45392 | -2.06394 | 2967 ft | 185 kts | 245° |
| 2026-05-04 17:09 | 53.44641 | -2.08148 | 2933 ft | 189 kts | 236° |
| 2026-05-04 17:09 | 53.43884 | -2.09930 | 2725 ft | 185 kts | 234° |
| 2026-05-04 17:10 | 53.42320 | -2.13222 | 2240 ft | 176 kts | 232° |
| 2026-05-04 17:10 | 53.40122 | -2.17737 | 1601 ft | 158 kts | 232° |
| 2026-05-04 17:11 | 53.39423 | -2.19173 | 1343 ft | 156 kts | 232° |
| 2026-05-04 17:11 | 53.38744 | -2.20568 | 1126 ft | 152 kts | 232° |
| 2026-05-04 17:11 | 53.37445 | -2.23239 | 726 ft | 147 kts | 231° |
| 2026-05-04 17:12 | 53.36792 | -2.24583 | 504 ft | 149 kts | 231° |
| 2026-05-04 17:12 | 53.35560 | -2.27118 | 261 ft | 109 kts | 231° |
| 2026-05-04 17:13 | 53.34946 | -2.28688 | 231 ft | 18 kts | 283° |
| 2026-05-04 17:14 | 53.35182 | -2.28403 | 231 ft | 15 kts | 51° |
| 2026-05-04 17:14 | 53.35244 | -2.28276 | 233 ft | 13 kts | 50° |
| 2026-05-04 17:14 | 53.35368 | -2.28062 | 240 ft | 13 kts | 42° |
| 2026-05-04 17:15 | 53.35432 | -2.27962 | 243 ft | 12 kts | 45° |
| 2026-05-04 17:15 | 53.35532 | -2.27798 | 246 ft | 10 kts | 44° |
| 2026-05-04 17:16 | 53.35602 | -2.27686 | 246 ft | 0 kts | 44° |
| 2026-05-04 17:16 | 53.35608 | -2.27676 | 246 ft | 0 kts | 44° |
| 2026-05-04 17:17 | 53.35609 | -2.27674 | 246 ft | 1 kts | 44° |
| 2026-05-04 17:17 | 53.35767 | -2.27365 | 246 ft | 5 kts | 51° |
| 2026-05-04 17:18 | 53.35791 | -2.27316 | 247 ft | 6 kts | 51° |
| 2026-05-04 17:18 | 53.35799 | -2.27117 | 250 ft | 12 kts | 95° |
| 2026-05-04 17:19 | 53.35868 | -2.26904 | 253 ft | 11 kts | 50° |
| 2026-05-04 17:19 | 53.36012 | -2.26848 | 247 ft | 7 kts | 323° |
| 2026-05-04 17:20 | 53.36037 | -2.26885 | 247 ft | 0 kts | 313° |